Time;durP1;ratioP1;P1;durP2;ratioP2;P2;SDS_P1;SDS_P2;PMS_P1;PMS_P2;Temp;Humidity;BMP_temperature;BMP_pressure;BME280_temperature;BME280_humidity;BME280_pressure;Samples;Min_cycle;Max_cycle;Signal;HPM_P1;HPM_P2
2021/08/31 00:03:55;;;;;;;16.37;13.93;;;17.40;99.90;;;;;;10318430;28;20204;-84
2021/08/31 00:08:57;;;;;;;14.20;13.00;;;17.30;99.90;;;;;;10337953;28;20212;-84
2021/08/31 00:14:00;;;;;;;14.97;13.37;;;17.30;99.90;;;;;;10419168;28;20192;-84
2021/08/31 00:19:03;;;;;;;14.30;13.00;;;17.30;99.90;;;;;;10411133;28;20334;-84
2021/08/31 00:24:05;;;;;;;15.20;13.90;;;17.30;99.90;;;;;;10396386;28;20195;-84
2021/08/31 00:29:09;;;;;;;13.30;12.20;;;17.30;99.90;;;;;;10393091;28;20265;-84
2021/08/31 00:34:11;;;;;;;15.23;13.60;;;17.30;99.90;;;;;;10388465;28;20203;-84
2021/08/31 00:39:13;;;;;;;14.67;13.10;;;17.30;99.90;;;;;;10418167;28;20200;-84
2021/08/31 00:44:21;;;;;;;16.57;15.17;;;17.40;99.90;;;;;;10413391;28;20200;-84
2021/08/31 00:49:24;;;;;;;15.33;14.10;;;17.40;99.90;;;;;;10428522;28;20219;-84
2021/08/31 00:54:28;;;;;;;16.50;15.10;;;17.40;99.90;;;;;;10401449;28;20759;-84
2021/08/31 00:59:32;;;;;;;16.30;14.90;;;17.40;99.90;;;;;;10443284;28;20212;-84
2021/08/31 01:04:35;;;;;;;15.73;14.30;;;17.40;99.90;;;;;;10414042;28;20671;-84
2021/08/31 01:09:38;;;;;;;17.60;15.90;;;17.40;99.90;;;;;;10396752;28;20311;-84
2021/08/31 01:14:43;;;;;;;17.97;16.37;;;17.40;99.90;;;;;;10461381;28;20297;-84
2021/08/31 01:19:45;;;;;;;19.20;17.57;;;17.40;99.90;;;;;;10482442;28;20291;-84
2021/08/31 01:24:48;;;;;;;20.80;18.47;;;17.40;99.90;;;;;;10500316;28;20193;-84
2021/08/31 01:29:52;;;;;;;20.97;18.63;;;17.40;99.90;;;;;;10486968;28;20208;-84
2021/08/31 01:34:54;;;;;;;20.07;18.23;;;17.40;99.90;;;;;;10491329;28;20192;-84
2021/08/31 01:39:56;;;;;;;21.33;19.17;;;17.40;99.90;;;;;;10491497;28;20231;-84
2021/08/31 01:45:00;;;;;;;24.23;20.67;;;17.40;99.90;;;;;;10491873;28;20279;-84
2021/08/31 01:50:02;;;;;;;22.60;20.30;;;17.40;99.90;;;;;;10492965;28;20212;-84
2021/08/31 01:55:05;;;;;;;22.37;20.03;;;17.40;99.90;;;;;;10510144;28;20200;-84
2021/08/31 02:00:10;;;;;;;22.93;19.87;;;17.30;99.90;;;;;;10492836;28;20319;-84
2021/08/31 02:05:15;;;;;;;23.40;20.03;;;17.30;99.90;;;;;;10504531;28;20197;-82
2021/08/31 02:10:17;;;;;;;22.97;20.80;;;17.20;99.90;;;;;;10484056;28;20232;-82
2021/08/31 02:15:20;;;;;;;23.07;20.87;;;17.20;99.90;;;;;;10488145;28;20200;-83
2021/08/31 02:20:23;;;;;;;23.80;20.80;;;17.20;99.90;;;;;;10508631;28;20695;-82
2021/08/31 02:25:25;;;;;;;26.93;19.93;;;17.20;99.90;;;;;;10505202;28;20287;-83
2021/08/31 02:30:28;;;;;;;21.63;19.43;;;17.20;99.90;;;;;;10505754;28;20209;-82
2021/08/31 02:35:31;;;;;;;21.03;19.03;;;17.20;99.90;;;;;;10488003;28;20201;-82
2021/08/31 02:40:33;;;;;;;21.40;19.30;;;17.20;99.90;;;;;;10470694;28;20231;-83
2021/08/31 02:45:36;;;;;;;21.43;19.23;;;17.20;99.90;;;;;;10471507;28;20205;-82
2021/08/31 02:50:39;;;;;;;21.87;19.60;;;17.20;99.90;;;;;;10399061;28;20220;-83
2021/08/31 02:55:41;;;;;;;20.97;18.87;;;17.10;99.90;;;;;;10292808;28;20200;-82
2021/08/31 03:00:53;;;;;;;20.00;17.97;;;17.10;99.90;;;;;;10360262;28;20234;-82
2021/08/31 03:05:55;;;;;;;19.60;17.70;;;17.10;99.90;;;;;;10291157;28;20219;-82
2021/08/31 03:10:57;;;;;;;22.10;19.90;;;17.10;99.90;;;;;;10369597;28;20200;-82
2021/08/31 03:16:01;;;;;;;21.23;19.03;;;17.10;99.90;;;;;;10358827;28;20210;-83
2021/08/31 03:21:03;;;;;;;20.17;18.20;;;17.10;99.90;;;;;;10307345;28;20649;-82
2021/08/31 03:26:05;;;;;;;21.20;19.20;;;17.10;99.90;;;;;;10360497;28;20214;-83
2021/08/31 03:31:09;;;;;;;22.37;20.17;;;17.10;99.90;;;;;;10278410;28;20712;-83
2021/08/31 03:36:11;;;;;;;22.20;19.93;;;17.10;99.90;;;;;;10391322;28;20231;-83
2021/08/31 03:41:13;;;;;;;22.53;20.13;;;17.10;99.90;;;;;;10357843;28;20703;-82
2021/08/31 03:46:17;;;;;;;25.03;22.47;;;17.20;99.90;;;;;;10322634;28;20226;-82
2021/08/31 03:51:19;;;;;;;23.97;21.67;;;17.10;99.90;;;;;;10274365;28;20577;-83
2021/08/31 03:56:21;;;;;;;25.00;22.50;;;17.20;99.90;;;;;;10409774;28;21173;-82
2021/08/31 04:01:25;;;;;;;23.87;21.57;;;17.10;99.90;;;;;;10418204;28;20212;-83
2021/08/31 04:06:27;;;;;;;23.90;21.60;;;17.10;99.90;;;;;;10320060;28;20227;-82
2021/08/31 04:11:29;;;;;;;24.87;20.47;;;17.10;99.90;;;;;;10375449;28;20196;-83
2021/08/31 04:16:33;;;;;;;23.27;21.00;;;17.10;99.90;;;;;;10376663;28;20720;-82
2021/08/31 04:21:35;;;;;;;23.07;20.60;;;17.10;99.90;;;;;;10361473;28;20223;-82
2021/08/31 04:26:37;;;;;;;24.33;21.63;;;17.10;99.90;;;;;;10362580;28;20224;-82
2021/08/31 04:31:40;;;;;;;24.27;21.77;;;17.20;99.90;;;;;;10296429;28;20207;-82
2021/08/31 04:36:43;;;;;;;24.87;20.53;;;17.20;99.90;;;;;;10375470;28;20212;-82
2021/08/31 04:41:45;;;;;;;23.73;21.13;;;17.20;99.90;;;;;;10373317;28;20244;-83
2021/08/31 04:46:49;;;;;;;22.33;20.20;;;17.20;99.90;;;;;;10353309;28;20310;-82
2021/08/31 04:51:51;;;;;;;23.10;20.70;;;17.20;99.90;;;;;;10356828;28;20202;-83
2021/08/31 04:56:53;;;;;;;23.30;20.37;;;17.20;99.90;;;;;;10449834;28;20224;-83
2021/08/31 05:01:57;;;;;;;22.93;20.73;;;17.20;99.90;;;;;;10423434;28;20212;-82
2021/08/31 05:06:59;;;;;;;22.57;20.27;;;17.20;99.90;;;;;;10451597;28;20233;-83
2021/08/31 05:12:01;;;;;;;22.80;20.50;;;17.20;99.90;;;;;;10481242;28;20189;-82
2021/08/31 05:17:05;;;;;;;21.77;19.47;;;17.20;99.90;;;;;;10461501;28;20307;-83
2021/08/31 05:22:07;;;;;;;22.73;20.50;;;17.20;99.90;;;;;;10355664;28;20259;-82
2021/08/31 05:27:09;;;;;;;23.93;21.53;;;17.20;99.90;;;;;;10376031;28;20226;-83
2021/08/31 05:32:13;;;;;;;21.63;19.80;;;17.20;99.90;;;;;;10352056;28;20649;-83
2021/08/31 05:37:15;;;;;;;21.10;18.90;;;17.20;99.90;;;;;;10369691;28;20216;-83
2021/08/31 05:42:17;;;;;;;22.20;20.00;;;17.20;99.90;;;;;;10356080;28;20318;-83
2021/08/31 05:47:20;;;;;;;20.83;18.83;;;17.20;99.90;;;;;;10287687;28;20598;-83
2021/08/31 05:52:22;;;;;;;21.27;19.07;;;17.20;99.90;;;;;;10355592;28;20191;-83
2021/08/31 05:57:25;;;;;;;19.60;17.60;;;17.30;99.90;;;;;;10356175;28;20230;-83
2021/08/31 06:02:28;;;;;;;20.27;18.37;;;17.30;99.90;;;;;;10356417;28;20779;-83
2021/08/31 06:07:34;;;;;;;18.33;16.63;;;17.30;99.90;;;;;;10357288;28;20254;-83
2021/08/31 06:12:36;;;;;;;19.00;17.20;;;17.30;99.90;;;;;;10291311;28;20291;-83
2021/08/31 06:17:39;;;;;;;17.90;16.13;;;17.30;99.90;;;;;;10363930;28;20294;-83
2021/08/31 06:22:41;;;;;;;17.07;15.40;;;17.30;99.90;;;;;;10366431;28;20647;-83
2021/08/31 06:27:43;;;;;;;16.97;15.23;;;17.30;99.90;;;;;;10300061;28;20220;-83
2021/08/31 06:32:47;;;;;;;16.70;15.20;;;17.30;99.90;;;;;;10368759;28;20192;-83
2021/08/31 06:37:50;;;;;;;17.17;15.60;;;17.30;99.90;;;;;;10299391;28;20274;-82
2021/08/31 06:42:52;;;;;;;15.20;13.80;;;17.30;99.90;;;;;;10367016;28;20254;-83
2021/08/31 06:47:55;;;;;;;15.40;13.80;;;17.40;99.90;;;;;;10365044;28;20635;-83
2021/08/31 06:52:58;;;;;;;14.70;13.40;;;17.50;99.90;;;;;;10301444;28;20618;-83
2021/08/31 06:58:00;;;;;;;15.40;13.90;;;17.60;99.90;;;;;;10366743;28;20764;-83
2021/08/31 07:03:03;;;;;;;16.10;14.60;;;17.60;99.90;;;;;;10304839;28;20314;-83
2021/08/31 07:08:06;;;;;;;13.10;11.97;;;17.60;99.90;;;;;;10360660;28;20299;-83
2021/08/31 07:13:08;;;;;;;13.97;12.80;;;17.60;99.90;;;;;;10346847;28;20566;-83
2021/08/31 07:18:11;;;;;;;13.13;11.90;;;17.60;99.90;;;;;;10294810;28;20219;-83
2021/08/31 07:23:14;;;;;;;13.80;12.40;;;17.60;99.90;;;;;;10383899;28;20755;-83
2021/08/31 07:28:16;;;;;;;16.40;15.00;;;17.50;99.90;;;;;;10357128;28;20224;-83
2021/08/31 07:33:20;;;;;;;15.10;13.60;;;17.50;99.90;;;;;;10356321;28;20257;-83
2021/08/31 07:38:22;;;;;;;13.53;12.43;;;17.60;99.90;;;;;;10357152;28;20241;-83
2021/08/31 07:43:25;;;;;;;14.13;12.87;;;17.80;99.90;;;;;;10339894;28;20223;-83
2021/08/31 07:48:29;;;;;;;12.60;11.40;;;17.90;99.90;;;;;;10361713;28;20499;-83
2021/08/31 07:53:31;;;;;;;12.40;10.93;;;18.00;99.90;;;;;;10338828;28;20578;-83
2021/08/31 07:58:34;;;;;;;11.67;10.67;;;18.10;99.90;;;;;;10355145;28;20700;-83
2021/08/31 08:03:37;;;;;;;11.23;10.33;;;18.20;99.90;;;;;;10356673;28;20220;-83
2021/08/31 08:08:40;;;;;;;10.60;9.70;;;18.20;99.90;;;;;;10358145;28;20281;-82
2021/08/31 08:13:42;;;;;;;11.60;10.60;;;18.30;99.90;;;;;;10358304;28;20413;-83
2021/08/31 08:18:46;;;;;;;11.17;10.27;;;18.40;99.90;;;;;;10428341;28;20217;-82
2021/08/31 08:23:48;;;;;;;10.70;9.63;;;18.50;99.90;;;;;;10415743;28;20356;-82
2021/08/31 08:28:50;;;;;;;9.90;9.17;;;18.60;99.90;;;;;;10417658;28;20220;-82
2021/08/31 08:33:54;;;;;;;11.50;10.47;;;18.50;99.90;;;;;;10427894;28;20192;-83
2021/08/31 08:38:56;;;;;;;10.40;9.40;;;18.50;99.90;;;;;;10420172;28;20212;-83
2021/08/31 08:44:00;;;;;;;11.87;10.77;;;18.40;99.90;;;;;;10429046;28;20208;-83
2021/08/31 08:49:04;;;;;;;10.70;9.80;;;18.40;99.90;;;;;;10441010;28;20223;-83
2021/08/31 08:54:06;;;;;;;10.23;9.33;;;18.50;99.90;;;;;;10485518;28;20628;-83
2021/08/31 08:59:08;;;;;;;10.43;9.43;;;18.70;99.90;;;;;;10486069;28;20227;-83
2021/08/31 09:04:13;;;;;;;9.60;8.80;;;18.80;99.90;;;;;;10488594;28;20239;-83
2021/08/31 09:09:15;;;;;;;9.90;8.90;;;18.90;99.90;;;;;;10501923;28;20248;-83
2021/08/31 09:14:23;;;;;;;9.77;9.00;;;18.90;99.90;;;;;;10485171;28;20199;-83
2021/08/31 09:19:33;;;;;;;9.83;8.83;;;19.00;99.90;;;;;;10496575;28;20248;-83
2021/08/31 09:24:35;;;;;;;11.43;9.70;;;19.00;99.90;;;;;;10412316;28;20208;-83
2021/08/31 09:29:39;;;;;;;9.47;8.77;;;19.20;99.90;;;;;;10463589;28;20212;-82
2021/08/31 09:34:45;;;;;;;9.17;8.47;;;19.40;99.90;;;;;;10479133;28;20184;-83
2021/08/31 09:40:05;;;;;;;7.97;7.27;;;19.60;99.90;;;;;;10416943;28;20216;-83
2021/08/31 09:45:08;;;;;;;8.77;8.07;;;19.70;99.90;;;;;;10405947;28;20219;-83
2021/08/31 09:50:28;;;;;;;8.23;7.57;;;19.80;99.90;;;;;;10405706;28;20680;-83
2021/08/31 09:55:30;;;;;;;8.83;8.03;;;19.90;99.90;;;;;;10424254;28;20221;-83
2021/08/31 10:00:33;;;;;;;8.43;7.73;;;20.10;99.90;;;;;;10294130;28;20216;-83
2021/08/31 10:05:37;;;;;;;9.33;8.53;;;20.20;99.90;;;;;;10363357;28;20211;-82
2021/08/31 10:10:41;;;;;;;8.47;7.67;;;20.20;99.90;;;;;;10361413;28;20599;-83
2021/08/31 10:15:46;;;;;;;9.20;8.30;;;20.10;99.90;;;;;;10278021;28;20204;-82
2021/08/31 10:20:52;;;;;;;8.70;8.00;;;20.00;99.90;;;;;;10362318;28;20265;-82
2021/08/31 10:26:27;;;;;;;9.00;8.10;;;20.00;99.90;;;;;;10295549;28;20199;-83
2021/08/31 10:31:31;;;;;;;9.00;8.20;;;20.00;99.90;;;;;;10295855;28;20216;-83
2021/08/31 10:36:38;;;;;;;8.93;8.13;;;20.00;99.90;;;;;;10384063;28;20652;-83
2021/08/31 10:41:48;;;;;;;7.37;6.87;;;20.10;99.90;;;;;;10390274;28;20217;-82
2021/08/31 10:47:06;;;;;;;7.90;7.30;;;20.20;99.90;;;;;;10420204;28;20223;-83
2021/08/31 10:52:10;;;;;;;8.50;7.70;;;20.30;99.90;;;;;;10430086;28;20253;-83
2021/08/31 10:57:45;;;;;;;7.70;7.10;;;20.30;99.90;;;;;;10355183;28;20538;-83
2021/08/31 11:02:53;;;;;;;9.47;8.57;;;20.30;99.90;;;;;;10292509;28;20220;-83
2021/08/31 11:08:14;;;;;;;7.83;7.23;;;20.30;99.90;;;;;;10276891;28;20277;-83
2021/08/31 11:13:21;;;;;;;7.93;7.33;;;20.50;99.90;;;;;;10294819;28;20249;-83
2021/08/31 11:18:23;;;;;;;8.63;7.83;;;20.50;99.90;;;;;;10358233;28;20277;-83
2021/08/31 11:23:31;;;;;;;7.20;6.60;;;20.50;99.90;;;;;;10290892;28;20228;-83
2021/08/31 11:28:33;;;;;;;8.30;7.70;;;20.50;99.90;;;;;;10291368;28;20657;-83
2021/08/31 11:33:38;;;;;;;7.43;6.70;;;20.50;99.90;;;;;;10274522;28;20212;-83
2021/08/31 11:38:43;;;;;;;8.20;7.60;;;20.60;99.90;;;;;;10360770;28;20319;-83
2021/08/31 11:43:47;;;;;;;8.10;7.40;;;20.70;99.90;;;;;;10359163;28;20232;-83
2021/08/31 11:48:49;;;;;;;7.93;7.33;;;20.80;99.90;;;;;;10358314;28;20263;-83
2021/08/31 11:54:05;;;;;;;8.03;7.33;;;20.80;99.90;;;;;;10357924;28;20196;-83
2021/08/31 11:59:08;;;;;;;7.40;6.90;;;20.80;99.90;;;;;;10357720;28;20226;-83
2021/08/31 12:04:28;;;;;;;7.87;7.27;;;20.80;99.90;;;;;;10289640;28;20250;-83
2021/08/31 12:09:32;;;;;;;7.53;6.93;;;20.90;99.90;;;;;;10290582;28;20234;-83
2021/08/31 12:14:34;;;;;;;7.90;7.30;;;20.80;99.90;;;;;;10291112;28;20200;-83
2021/08/31 12:19:38;;;;;;;7.33;6.83;;;20.80;99.90;;;;;;10358596;28;20212;-83
2021/08/31 12:24:43;;;;;;;6.83;6.33;;;20.90;99.90;;;;;;10291129;28;20220;-83
2021/08/31 12:29:48;;;;;;;7.70;7.10;;;20.90;99.90;;;;;;10307649;28;20696;-83
2021/08/31 12:34:50;;;;;;;7.80;7.17;;;20.90;99.90;;;;;;10373549;28;20250;-83
2021/08/31 12:40:13;;;;;;;8.40;7.60;;;21.00;99.90;;;;;;10274156;28;20310;-83
2021/08/31 12:45:26;;;;;;;7.37;6.87;;;21.20;99.90;;;;;;10357136;28;20231;-83
2021/08/31 12:50:29;;;;;;;7.10;6.60;;;21.20;99.90;;;;;;10357593;28;20223;-83
2021/08/31 12:55:33;;;;;;;6.83;6.33;;;21.20;99.90;;;;;;10377280;28;20203;-83
2021/08/31 13:00:35;;;;;;;8.37;7.57;;;21.20;99.90;;;;;;10376421;28;20216;-83
2021/08/31 13:05:37;;;;;;;7.03;6.43;;;21.10;99.90;;;;;;10360964;28;20266;-83
2021/08/31 13:10:40;;;;;;;7.83;7.13;;;21.00;99.90;;;;;;10360932;28;20253;-83
2021/08/31 13:15:42;;;;;;;7.70;7.00;;;21.00;99.90;;;;;;10307643;28;20679;-83
2021/08/31 13:20:44;;;;;;;7.53;6.93;;;21.00;99.90;;;;;;10292022;28;20223;-83
2021/08/31 13:25:48;;;;;;;7.10;6.50;;;20.90;99.90;;;;;;10290577;28;20302;-83
2021/08/31 13:30:50;;;;;;;7.13;6.63;;;20.70;99.90;;;;;;10291018;28;20593;-83
2021/08/31 13:35:53;;;;;;;6.73;6.23;;;20.50;99.90;;;;;;10290957;28;20188;-83
2021/08/31 13:40:56;;;;;;;7.90;7.20;;;20.30;99.90;;;;;;10289273;28;20212;-83
2021/08/31 13:45:59;;;;;;;6.77;6.23;;;20.20;99.90;;;;;;10355930;28;20240;-83
2021/08/31 13:51:01;;;;;;;7.20;6.70;;;20.20;99.90;;;;;;10291260;28;20203;-83
2021/08/31 13:56:05;;;;;;;6.30;5.90;;;20.30;99.90;;;;;;10289986;28;20200;-83
2021/08/31 14:01:08;;;;;;;6.93;6.43;;;20.10;99.90;;;;;;10355607;28;20621;-83
2021/08/31 14:06:10;;;;;;;7.63;7.03;;;20.00;99.90;;;;;;10288937;28;20602;-83
2021/08/31 14:11:14;;;;;;;8.00;7.30;;;19.90;99.90;;;;;;10370567;28;20267;-83
2021/08/31 14:16:16;;;;;;;7.50;6.90;;;19.80;99.90;;;;;;10286857;28;20250;-83
2021/08/31 14:21:20;;;;;;;7.60;7.00;;;19.70;99.90;;;;;;10288904;28;20196;-83
2021/08/31 14:26:25;;;;;;;6.70;6.20;;;19.60;99.90;;;;;;10371447;28;20212;-83
2021/08/31 14:31:27;;;;;;;7.53;6.90;;;19.50;99.90;;;;;;10339728;28;20200;-83
2021/08/31 14:36:29;;;;;;;7.73;7.03;;;19.60;99.90;;;;;;10374580;28;20223;-83
2021/08/31 14:41:32;;;;;;;7.23;6.73;;;19.60;99.90;;;;;;10363220;28;20202;-83
2021/08/31 14:46:35;;;;;;;6.70;6.20;;;19.70;99.90;;;;;;10363500;28;20251;-83
2021/08/31 14:51:37;;;;;;;8.37;7.67;;;19.80;99.90;;;;;;10378844;28;20590;-83
2021/08/31 14:56:40;;;;;;;8.10;7.50;;;19.70;99.90;;;;;;10294654;28;20224;-83
2021/08/31 15:01:43;;;;;;;7.90;7.30;;;19.60;99.90;;;;;;10279273;28;20307;-83
2021/08/31 15:06:45;;;;;;;9.00;8.30;;;19.50;99.90;;;;;;10296155;28;20228;-83
2021/08/31 15:11:48;;;;;;;8.17;7.43;;;19.40;99.90;;;;;;10295573;28;20192;-83
2021/08/31 15:16:50;;;;;;;8.40;7.73;;;19.30;99.90;;;;;;10369286;28;20374;-83
2021/08/31 15:21:52;;;;;;;8.20;7.60;;;19.30;99.90;;;;;;10373437;28;20269;-83
2021/08/31 15:26:56;;;;;;;8.03;7.43;;;19.30;99.90;;;;;;10294772;28;20228;-83
2021/08/31 15:31:58;;;;;;;6.63;6.07;;;19.20;99.90;;;;;;10295996;28;20192;-84
2021/08/31 15:37:00;;;;;;;7.83;7.13;;;19.20;99.90;;;;;;10295297;28;20271;-83
2021/08/31 15:42:05;;;;;;;9.50;7.87;;;19.20;99.90;;;;;;10378531;28;20223;-83
2021/08/31 15:47:07;;;;;;;8.77;7.97;;;19.30;99.90;;;;;;10292774;28;20255;-83
2021/08/31 15:52:10;;;;;;;8.23;7.63;;;19.40;99.90;;;;;;10376821;28;20195;-84
2021/08/31 15:57:14;;;;;;;7.90;7.30;;;19.40;99.90;;;;;;10375511;28;20289;-83
2021/08/31 16:02:18;;;;;;;8.23;7.60;;;19.40;99.90;;;;;;10426125;28;20255;-83
2021/08/31 16:07:56;;;;;;;8.03;7.43;;;19.50;99.90;;;;;;10396202;28;20221;-84
2021/08/31 16:12:59;;;;;;;7.63;7.03;;;19.50;99.90;;;;;;10405938;28;20660;-84
2021/08/31 16:18:03;;;;;;;7.27;6.67;;;19.60;99.90;;;;;;10451692;28;20228;-83
2021/08/31 16:23:05;;;;;;;7.53;6.97;;;19.60;99.90;;;;;;10483452;28;20212;-84
2021/08/31 16:28:08;;;;;;;6.80;6.33;;;19.70;99.90;;;;;;10444783;28;20270;-83
2021/08/31 16:33:11;;;;;;;9.83;8.87;;;19.80;99.90;;;;;;10463776;28;20567;-83
2021/08/31 16:38:13;;;;;;;7.93;7.33;;;19.70;99.90;;;;;;10363742;28;20311;-83
2021/08/31 16:43:16;;;;;;;7.40;6.90;;;19.70;99.90;;;;;;10456889;28;20240;-83
2021/08/31 16:48:19;;;;;;;7.93;7.40;;;19.60;99.90;;;;;;10342477;28;20242;-83
2021/08/31 16:53:21;;;;;;;8.60;7.90;;;19.50;99.90;;;;;;10424629;28;20188;-83
2021/08/31 16:58:25;;;;;;;7.33;6.73;;;19.50;99.90;;;;;;10288668;28;20219;-83
2021/08/31 17:03:29;;;;;;;8.20;7.50;;;19.50;99.90;;;;;;10295947;28;20226;-83
2021/08/31 17:08:31;;;;;;;7.17;6.57;;;19.40;99.90;;;;;;10300439;28;20680;-83
2021/08/31 17:13:35;;;;;;;7.63;7.07;;;19.30;99.90;;;;;;10380331;28;20199;-83
2021/08/31 17:18:37;;;;;;;7.50;6.90;;;19.30;99.90;;;;;;10326352;28;20734;-83
2021/08/31 17:23:39;;;;;;;8.33;7.70;;;19.20;99.90;;;;;;10430029;28;20220;-83
2021/08/31 17:28:44;;;;;;;8.53;7.83;;;19.10;99.90;;;;;;10476939;28;20308;-83
2021/08/31 17:33:46;;;;;;;8.03;7.43;;;19.00;99.90;;;;;;10322656;28;20195;-83
2021/08/31 17:38:48;;;;;;;8.40;7.60;;;19.00;99.90;;;;;;10300080;28;20220;-83
2021/08/31 17:43:52;;;;;;;8.37;7.70;;;18.90;99.90;;;;;;10348458;28;20228;-83
2021/08/31 17:48:55;;;;;;;9.67;8.90;;;18.80;99.90;;;;;;10297769;28;20216;-83
2021/08/31 17:53:59;;;;;;;9.07;8.37;;;18.80;99.90;;;;;;10331595;28;20200;-83
2021/08/31 17:59:02;;;;;;;9.73;8.93;;;18.70;99.90;;;;;;10299564;28;20224;-83
2021/08/31 18:04:05;;;;;;;7.53;6.93;;;18.70;99.90;;;;;;10319231;28;20234;-83
2021/08/31 18:48:43;;;;;;;8.57;7.93;;;17.70;99.90;;;;;;10178307;28;20236;-85
2021/08/31 19:07:29;;;;;;;9.40;8.50;;;17.50;99.90;;;;;;10455163;28;20233;-84
